Arvada, WY

3:29 PM MDT on September 16, 2014 (GMT -0600)
RAWS ECHETA WY US | Change Station
CLOSE
Current Station
Personal Weather Station
Location: Gillette, WY
Elevation: 4396 ft
Nearby Weather Stations

Elev 4396 ft 44.47 °N, 105.84 °W | Updated 38 minutes ago

Clear
Clear
85 °F
Feels Like 82 °F
N
4
Wind Variable Wind from West
Gusts 10.0 mph

Today
High -- | Low -- °F
--% Chance of Precip.
Yesterday
High -- | Low -- °F
Precip. -- in
6:44 AM 7:13 PM
Last Quarter, 42% visible
Pressure 29.89 in
Visibility 10.0 miles
Clouds Clear
Heat Index 82 °F
Dew Point 30 °F
Humidity 14%
Rainfall 0.00 in
Snow Depth 3 in , 2 in , 0 in
UV 6 out of 12
Pollen 5.90 out of 12
Air Quality Not available.
Flu Activity Not available.
METAR KGCC 162053Z AUTO 29008KT 10SM CLR 29/02 A3001 RMK AO2 SLP121 T02890017 56015

More Conditions Fewer Conditions

Pressure 29.89 in
Visibility 10.0 miles
Clouds Clear
Heat Index 82 °F
Dew Point 30 °F
Humidity 14%
Rainfall 0.00 in
Snow Depth 3 in , 2 in , 0 in
UV 6 out of 12
Pollen 5.90 out of 12
Air Quality Not available.
Flu Activity Not available.
METAR KGCC 162053Z AUTO 29008KT 10SM CLR 29/02 A3001 RMK AO2 SLP121 T02890017 56015

More Conditions Fewer Conditions

10-Day Weather Forecast

Almanac

Astronomy

Sep. 16, 2014 Rise Set
Actual Time 6:44 AM MDT 7:13 PM MDT
Civil Twilight 6:15 AM MDT 7:42 PM MDT
Nautical Twilight 5:40 AM MDT 8:16 PM MDT
Astronomical Twilight 5:04 AM MDT 8:52 PM MDT
Moon No Moon Rise 2:49 PM MDT
Length of Visible Light 13h 27m
Length of Day
12h 28m
Tomorrow will be 3m 4s shorter.
Last Quarter, 42% of the Moon is Illuminated
Today
Last Quarter
Sep 24
New
Oct 1
First Quarter
Oct 8
Full
Oct 15
Last Quarter

Today's Extremes

State Highs State Lows

Community

WunderPhotos

Upload Photos

1,753,888 photos uploaded!

Nearby

Snow Depth

Station Depth Elevation
Shell Creek 3 in 9580 ft
Willow Creek 2 in 8450 ft
Sylvan Road 0 in 7120 ft
Salt River Summit 0 in 7600 ft
Phillips Bench 0 in 8200 ft

Earthquake Activity

City Distance Mag. Time & Date
No recent earthquake activity has been reported nearby.
Minimum magnitude displayed is 2.5.

Coastal Water Temperatures

Place Temperature
No Stations Reporting

Nearby Weather Stations